Time;durP1;ratioP1;P1;durP2;ratioP2;P2;SDS_P1;SDS_P2;PMS_P1;PMS_P2;Temp;Humidity;BMP_temperature;BMP_pressure;BME280_temperature;BME280_humidity;BME280_pressure;Samples;Min_cycle;Max_cycle;Signal;HPM_P1;HPM_P2
2022/10/06 00:01:35;;;;;;;8.10;7.90;;;11.50;99.90;;;;;;5023160;28;20240;-83
2022/10/06 00:04:13;;;;;;;8.00;7.80;;;11.50;99.90;;;;;;5022695;28;20244;-82
2022/10/06 00:06:43;;;;;;;8.20;8.00;;;11.50;99.90;;;;;;5021888;28;20250;-83
2022/10/06 00:09:12;;;;;;;8.37;8.17;;;11.60;99.90;;;;;;5022582;28;20236;-83
2022/10/06 00:11:42;;;;;;;8.50;8.30;;;11.60;99.90;;;;;;5022621;28;20293;-81
2022/10/06 00:14:11;;;;;;;9.17;8.87;;;11.60;99.90;;;;;;5022057;28;20252;-81
2022/10/06 00:16:41;;;;;;;9.00;8.70;;;11.60;99.90;;;;;;5022003;28;20256;-81
2022/10/06 00:19:19;;;;;;;9.07;8.77;;;11.60;99.90;;;;;;5022200;28;20231;-82
2022/10/06 00:21:49;;;;;;;8.87;8.67;;;11.60;99.90;;;;;;5022318;28;20238;-81
2022/10/06 00:24:19;;;;;;;8.97;8.70;;;11.60;99.90;;;;;;5023292;28;20232;-82
2022/10/06 00:26:47;;;;;;;9.13;8.83;;;11.60;99.90;;;;;;5022032;28;20228;-82
2022/10/06 00:29:17;;;;;;;8.70;8.50;;;11.60;99.90;;;;;;5022600;28;20244;-82
2022/10/06 00:31:46;;;;;;;9.00;8.70;;;11.60;99.90;;;;;;5022215;28;20224;-82
2022/10/06 00:37:05;;;;;;;8.40;8.20;;;11.60;99.90;;;;;;5021550;28;20283;-81
2022/10/06 00:39:34;;;;;;;8.20;8.00;;;11.60;99.90;;;;;;5022013;28;20224;-82
2022/10/06 00:42:03;;;;;;;7.70;7.50;;;11.50;99.90;;;;;;5022248;28;20242;-82
2022/10/06 00:44:32;;;;;;;8.10;7.90;;;11.50;99.90;;;;;;5021774;28;20296;-82
2022/10/06 00:47:02;;;;;;;8.00;7.80;;;11.50;99.90;;;;;;5021413;28;20230;-82
2022/10/06 00:49:42;;;;;;;7.77;7.57;;;11.40;99.90;;;;;;5020811;28;20264;-81
2022/10/06 00:52:18;;;;;;;7.90;7.70;;;11.40;99.90;;;;;;5021980;28;20223;-81
2022/10/06 00:54:48;;;;;;;8.10;7.90;;;11.40;99.90;;;;;;5021578;28;20315;-81
2022/10/06 00:57:18;;;;;;;8.17;7.97;;;11.40;99.90;;;;;;5021295;28;20235;-82
2022/10/06 00:59:47;;;;;;;8.40;8.20;;;11.30;99.90;;;;;;5025357;28;20220;-81
2022/10/06 01:02:28;;;;;;;8.70;8.50;;;11.30;99.90;;;;;;5029415;28;20259;-81
2022/10/06 01:05:05;;;;;;;8.63;8.43;;;11.30;99.90;;;;;;5023301;28;20311;-81
2022/10/06 01:07:33;;;;;;;8.50;8.30;;;11.30;99.90;;;;;;5021544;28;20240;-81
2022/10/06 01:10:02;;;;;;;8.20;8.00;;;11.20;99.90;;;;;;5005598;28;20228;-81
2022/10/06 01:12:32;;;;;;;8.07;7.87;;;11.20;99.90;;;;;;5002808;28;20257;-81
2022/10/06 01:15:02;;;;;;;8.40;8.20;;;11.20;99.90;;;;;;5002831;28;20244;-81
2022/10/06 01:17:40;;;;;;;8.43;8.23;;;11.20;99.90;;;;;;5001944;28;20272;-81
2022/10/06 01:20:18;;;;;;;8.37;8.17;;;11.20;99.90;;;;;;5002006;28;20248;-81
2022/10/06 01:22:57;;;;;;;8.20;8.00;;;11.20;99.90;;;;;;5002805;28;20232;-81
2022/10/06 01:25:27;;;;;;;8.30;8.10;;;11.20;99.90;;;;;;5001598;28;20235;-81
2022/10/06 01:27:56;;;;;;;8.20;8.00;;;11.20;99.90;;;;;;5001612;28;20240;-82
2022/10/06 01:30:33;;;;;;;8.40;8.20;;;11.20;99.90;;;;;;5001299;28;20315;-82
2022/10/06 01:33:02;;;;;;;8.20;8.00;;;11.20;99.90;;;;;;5001620;28;20256;-81
2022/10/06 01:35:32;;;;;;;8.17;7.97;;;11.20;99.90;;;;;;5000938;28;20604;-82
2022/10/06 01:38:01;;;;;;;8.17;7.97;;;11.20;99.90;;;;;;5000730;28;20237;-82
2022/10/06 01:40:31;;;;;;;8.17;7.97;;;11.20;99.90;;;;;;5001791;28;20240;-82
2022/10/06 01:43:00;;;;;;;7.97;7.77;;;11.20;99.90;;;;;;5001230;28;20247;-82
2022/10/06 01:45:30;;;;;;;8.10;7.90;;;11.20;99.90;;;;;;5001733;28;20229;-82
2022/10/06 01:47:59;;;;;;;7.83;7.63;;;11.20;99.90;;;;;;5020393;28;20242;-82
2022/10/06 01:50:29;;;;;;;7.93;7.73;;;11.20;99.90;;;;;;5020456;28;20228;-82
2022/10/06 01:52:58;;;;;;;7.80;7.60;;;11.20;99.90;;;;;;5020594;28;20235;-82
2022/10/06 01:55:30;;;;;;;8.00;7.80;;;11.20;99.90;;;;;;5019839;28;20730;-83
2022/10/06 01:57:57;;;;;;;8.17;7.97;;;11.20;99.90;;;;;;5020615;28;20240;-82
2022/10/06 02:00:26;;;;;;;8.40;8.20;;;11.20;99.90;;;;;;5020511;28;20363;-82
2022/10/06 02:02:57;;;;;;;8.20;8.00;;;11.20;99.90;;;;;;5020755;28;20242;-82
2022/10/06 02:05:26;;;;;;;8.30;8.10;;;11.20;99.90;;;;;;5020127;28;20307;-83
2022/10/06 02:07:55;;;;;;;8.43;8.23;;;11.20;99.90;;;;;;5019645;28;20248;-83
2022/10/06 02:10:25;;;;;;;8.50;8.30;;;11.20;99.90;;;;;;5021164;28;20228;-83
2022/10/06 02:12:56;;;;;;;8.50;8.30;;;11.20;99.90;;;;;;5022592;28;20331;-80
2022/10/06 02:15:25;;;;;;;8.90;8.70;;;11.20;99.90;;;;;;5022107;28;20232;-82
2022/10/06 02:17:54;;;;;;;8.70;8.50;;;11.10;99.90;;;;;;5023270;28;20303;-83
2022/10/06 02:20:22;;;;;;;8.63;8.43;;;11.10;99.90;;;;;;5024258;28;20243;-83
2022/10/06 02:22:51;;;;;;;8.37;8.17;;;11.20;99.90;;;;;;5024720;28;20283;-83
2022/10/06 02:25:20;;;;;;;8.53;8.33;;;11.20;99.90;;;;;;5027647;28;20220;-82
2022/10/06 02:27:50;;;;;;;8.60;8.40;;;11.20;99.90;;;;;;5023375;28;20323;-83
2022/10/06 02:30:31;;;;;;;8.50;8.30;;;11.10;99.90;;;;;;5022671;28;20620;-82
2022/10/06 02:32:59;;;;;;;8.60;8.40;;;11.10;99.90;;;;;;5022981;28;20236;-82
2022/10/06 02:35:30;;;;;;;8.57;8.37;;;11.20;99.90;;;;;;5022463;28;20228;-82
2022/10/06 02:37:58;;;;;;;8.40;8.20;;;11.20;99.90;;;;;;5022204;28;20243;-82
2022/10/06 02:40:26;;;;;;;8.30;8.10;;;11.20;99.90;;;;;;5022459;28;20896;-82
2022/10/06 02:42:58;;;;;;;8.13;7.93;;;11.30;99.90;;;;;;5022795;28;20288;-83
2022/10/06 02:45:30;;;;;;;8.23;8.03;;;11.30;99.90;;;;;;5022213;28;20285;-83
2022/10/06 02:47:57;;;;;;;8.70;8.50;;;11.30;99.90;;;;;;5022668;28;20251;-82
2022/10/06 02:50:25;;;;;;;8.70;8.50;;;11.40;99.90;;;;;;5022786;28;20307;-82
2022/10/06 02:52:55;;;;;;;8.50;8.30;;;11.40;99.90;;;;;;5023085;28;20231;-83
2022/10/06 02:55:24;;;;;;;8.60;8.40;;;11.40;99.90;;;;;;5022717;28;20263;-82
2022/10/06 02:57:54;;;;;;;8.53;8.33;;;11.40;99.90;;;;;;5022914;28;20231;-82
2022/10/06 03:00:24;;;;;;;8.50;8.30;;;11.40;99.90;;;;;;5023883;28;20316;-82
2022/10/06 03:05:40;;;;;;;8.63;8.43;;;11.40;99.90;;;;;;5020279;28;20220;-83
2022/10/06 03:08:10;;;;;;;8.53;8.33;;;11.50;99.90;;;;;;5022830;28;20239;-83
2022/10/06 03:10:39;;;;;;;8.60;8.40;;;11.60;99.90;;;;;;5023403;28;20251;-83
2022/10/06 03:13:09;;;;;;;8.27;8.07;;;11.60;99.90;;;;;;5022001;28;20232;-83
2022/10/06 03:15:38;;;;;;;8.40;8.20;;;11.60;99.90;;;;;;5021727;28;20240;-83
2022/10/06 03:20:54;;;;;;;8.53;8.33;;;11.70;99.90;;;;;;5024036;28;20223;-83
2022/10/06 03:23:23;;;;;;;8.60;8.40;;;11.70;99.90;;;;;;5023798;28;20242;-83
2022/10/06 03:26:02;;;;;;;8.63;8.43;;;11.70;99.90;;;;;;5022606;28;20271;-83
2022/10/06 03:28:31;;;;;;;8.30;8.10;;;11.60;99.90;;;;;;5023524;28;20243;-83
2022/10/06 03:31:02;;;;;;;8.10;7.90;;;11.60;99.90;;;;;;5023402;28;20232;-82
2022/10/06 03:33:42;;;;;;;7.93;7.73;;;11.60;99.90;;;;;;5023743;28;20243;-83
2022/10/06 03:36:18;;;;;;;8.07;7.87;;;11.60;99.90;;;;;;5023918;28;20228;-82
2022/10/06 03:38:47;;;;;;;8.00;7.80;;;11.70;99.90;;;;;;5036968;28;20211;-82
2022/10/06 03:41:18;;;;;;;8.00;7.80;;;11.70;99.90;;;;;;5037082;28;20224;-82
2022/10/06 03:43:47;;;;;;;8.30;8.10;;;11.70;99.90;;;;;;5036873;28;20259;-82
2022/10/06 03:46:18;;;;;;;8.10;7.90;;;11.70;99.90;;;;;;5036540;28;20292;-82
2022/10/06 03:48:56;;;;;;;8.13;7.93;;;11.70;99.90;;;;;;5037689;28;20229;-82
2022/10/06 03:51:31;;;;;;;7.90;7.70;;;11.70;99.90;;;;;;5034853;28;20228;-82
2022/10/06 03:54:01;;;;;;;7.90;7.70;;;11.80;99.90;;;;;;5038538;28;20220;-82
2022/10/06 03:56:31;;;;;;;8.20;8.00;;;11.90;99.90;;;;;;5025878;28;20244;-82
2022/10/06 03:59:00;;;;;;;8.50;8.30;;;12.00;99.90;;;;;;5020718;28;20221;-82
2022/10/06 04:01:31;;;;;;;8.30;8.10;;;12.00;99.90;;;;;;5020227;28;20244;-82
2022/10/06 04:04:10;;;;;;;8.40;8.20;;;12.10;99.90;;;;;;5020447;28;20264;-83
2022/10/06 04:06:45;;;;;;;8.53;8.33;;;12.20;99.90;;;;;;5020175;28;20250;-81
2022/10/06 04:09:16;;;;;;;8.50;8.30;;;12.20;99.90;;;;;;5021141;28;20224;-82
2022/10/06 04:11:45;;;;;;;8.47;8.27;;;12.30;99.90;;;;;;5020229;28;20267;-83
2022/10/06 04:14:15;;;;;;;8.27;8.07;;;12.30;99.90;;;;;;5020266;28;20242;-83
2022/10/06 04:16:45;;;;;;;8.53;8.33;;;12.20;99.90;;;;;;5019490;28;20239;-82
2022/10/06 04:19:26;;;;;;;8.70;8.50;;;12.10;99.90;;;;;;5020109;28;20208;-83
2022/10/06 04:21:53;;;;;;;8.50;8.30;;;12.10;99.90;;;;;;5020565;28;20267;-82
2022/10/06 04:24:21;;;;;;;8.40;8.20;;;12.10;99.90;;;;;;5021305;28;20243;-83
2022/10/06 04:26:51;;;;;;;8.07;7.87;;;12.20;99.90;;;;;;5023045;28;20491;-81
2022/10/06 04:29:19;;;;;;;8.40;8.20;;;12.20;99.90;;;;;;5023100;28;20228;-82
2022/10/06 04:31:49;;;;;;;8.10;7.90;;;12.20;99.90;;;;;;5023007;28;20239;-81
2022/10/06 04:34:21;;;;;;;8.30;8.10;;;12.20;99.90;;;;;;5023166;28;20240;-82
2022/10/06 04:36:49;;;;;;;8.40;8.20;;;12.10;99.90;;;;;;5022933;28;20269;-82
2022/10/06 04:39:19;;;;;;;8.17;7.97;;;12.10;99.90;;;;;;5023156;28;20292;-82
2022/10/06 04:41:48;;;;;;;8.07;7.87;;;12.10;99.90;;;;;;5022363;28;20299;-82
2022/10/06 04:44:18;;;;;;;8.27;8.07;;;12.20;99.90;;;;;;5021871;28;20231;-82
2022/10/06 04:46:47;;;;;;;8.33;8.13;;;12.30;99.90;;;;;;5022451;28;20240;-81
2022/10/06 04:49:17;;;;;;;8.20;8.00;;;12.30;99.90;;;;;;5022350;28;20224;-81
2022/10/06 04:51:55;;;;;;;8.20;8.00;;;12.40;99.90;;;;;;5022747;28;20730;-81
2022/10/06 04:54:24;;;;;;;8.37;8.17;;;12.50;99.90;;;;;;5022589;28;20739;-82
2022/10/06 04:56:55;;;;;;;7.93;7.73;;;12.50;99.90;;;;;;5022685;28;20352;-84
2022/10/06 05:00:21;;;;;;;7.90;7.70;;;12.50;99.90;;;;;;5023588;28;20236;-81
2022/10/06 05:02:11;;;;;;;8.13;7.93;;;12.60;99.90;;;;;;5024494;28;20283;-81
2022/10/06 05:04:40;;;;;;;7.80;7.60;;;12.70;99.90;;;;;;5026772;28;20263;-82
2022/10/06 05:07:11;;;;;;;7.90;7.70;;;12.70;99.90;;;;;;5041100;28;20244;-82
2022/10/06 05:09:39;;;;;;;7.80;7.60;;;12.80;99.90;;;;;;5032366;28;20232;-81
2022/10/06 05:12:09;;;;;;;7.77;7.57;;;12.80;99.90;;;;;;5026011;28;20232;-81
2022/10/06 05:14:38;;;;;;;8.30;8.10;;;12.80;99.90;;;;;;5023813;28;20248;-81
2022/10/06 05:17:07;;;;;;;8.50;8.30;;;12.80;99.90;;;;;;5026485;28;20239;-82
2022/10/06 05:19:45;;;;;;;8.30;8.10;;;12.80;99.90;;;;;;5025326;28;20232;-81
2022/10/06 05:22:26;;;;;;;8.70;8.50;;;12.70;99.90;;;;;;5027822;28;20292;-81
2022/10/06 05:24:54;;;;;;;9.20;8.90;;;12.80;99.90;;;;;;5025482;28;20461;-82
2022/10/06 05:27:22;;;;;;;8.80;8.60;;;12.80;99.90;;;;;;5026895;28;20246;-82
2022/10/06 05:29:51;;;;;;;8.87;8.67;;;13.00;99.90;;;;;;5034385;28;20212;-82
2022/10/06 05:32:21;;;;;;;9.27;8.97;;;13.00;99.90;;;;;;5055741;28;20230;-82
2022/10/06 05:34:50;;;;;;;8.77;8.57;;;13.10;99.90;;;;;;5038939;28;20252;-82
2022/10/06 05:37:29;;;;;;;8.70;8.50;;;13.20;99.90;;;;;;5039738;28;20262;-82
2022/10/06 05:39:58;;;;;;;8.63;8.43;;;13.20;99.90;;;;;;5036311;28;20212;-82
2022/10/06 05:42:28;;;;;;;8.70;8.50;;;13.20;99.90;;;;;;5036984;28;20400;-83
2022/10/06 05:44:57;;;;;;;8.77;8.57;;;13.20;99.90;;;;;;5033700;28;20263;-82
2022/10/06 05:47:27;;;;;;;8.40;8.20;;;13.20;99.90;;;;;;5038639;28;20228;-82
2022/10/06 05:49:56;;;;;;;8.30;8.10;;;13.20;99.90;;;;;;5038930;28;20324;-82
2022/10/06 05:52:25;;;;;;;8.40;8.20;;;13.20;99.90;;;;;;5038313;28;20243;-83
2022/10/06 05:54:53;;;;;;;8.20;8.00;;;13.30;99.90;;;;;;5036455;28;20284;-83
2022/10/06 05:57:20;;;;;;;8.43;8.23;;;13.30;99.90;;;;;;5038096;28;20232;-83
2022/10/06 05:59:48;;;;;;;8.40;8.20;;;13.30;99.90;;;;;;5037024;28;20276;-83
2022/10/06 06:02:16;;;;;;;8.60;8.40;;;13.40;99.90;;;;;;5038225;28;20255;-82
2022/10/06 06:04:44;;;;;;;8.50;8.30;;;13.40;99.90;;;;;;5036937;28;20244;-82
2022/10/06 06:07:11;;;;;;;8.30;8.10;;;13.40;99.90;;;;;;5037702;28;20233;-85
2022/10/06 06:09:40;;;;;;;8.83;8.63;;;13.30;99.90;;;;;;5038508;28;20280;-84
2022/10/06 06:12:08;;;;;;;8.90;8.70;;;13.30;99.90;;;;;;5038387;28;20216;-82
2022/10/06 06:17:23;;;;;;;8.80;8.60;;;13.40;99.90;;;;;;5037039;28;20231;-83
2022/10/06 06:19:51;;;;;;;9.03;8.80;;;13.40;99.90;;;;;;5036681;28;20244;-82
2022/10/06 06:22:19;;;;;;;8.90;8.70;;;13.30;99.90;;;;;;5037009;28;20232;-83
2022/10/06 06:24:48;;;;;;;8.63;8.43;;;13.30;99.90;;;;;;5029926;28;20228;-84
2022/10/06 06:27:16;;;;;;;8.60;8.40;;;13.30;99.90;;;;;;5023211;28;20302;-84
2022/10/06 06:29:44;;;;;;;8.70;8.50;;;13.30;99.90;;;;;;5037065;28;20219;-86
2022/10/06 06:32:12;;;;;;;8.60;8.40;;;13.30;99.90;;;;;;5040604;28;20221;-85
2022/10/06 06:34:40;;;;;;;8.90;8.70;;;13.30;99.90;;;;;;5040701;28;20267;-86
2022/10/06 06:37:09;;;;;;;8.63;8.43;;;13.30;99.90;;;;;;5040717;28;20324;-86
2022/10/06 06:39:37;;;;;;;8.80;8.60;;;13.30;99.90;;;;;;5040727;28;20210;-86
2022/10/06 06:42:09;;;;;;;8.83;8.63;;;13.40;99.90;;;;;;5040744;28;20201;-85
2022/10/06 06:44:36;;;;;;;8.93;8.73;;;13.50;99.90;;;;;;5040491;28;20226;-86
2022/10/06 06:47:05;;;;;;;9.00;8.77;;;13.50;99.90;;;;;;5039329;28;20243;-85
2022/10/06 06:49:34;;;;;;;9.20;8.90;;;13.60;99.90;;;;;;5040351;28;20272;-86
2022/10/06 06:52:04;;;;;;;9.03;8.83;;;13.60;99.90;;;;;;5038330;28;20248;-84
2022/10/06 06:54:33;;;;;;;8.90;8.70;;;13.70;99.90;;;;;;5037868;28;20335;-85
2022/10/06 06:57:05;;;;;;;9.00;8.80;;;13.70;99.90;;;;;;5037584;28;20252;-85
2022/10/06 06:59:37;;;;;;;8.80;8.60;;;13.70;99.90;;;;;;5029986;28;20224;-83
2022/10/06 07:02:04;;;;;;;9.30;9.00;;;13.80;99.90;;;;;;5023554;28;20262;-84
2022/10/06 07:04:34;;;;;;;8.90;8.70;;;13.90;99.90;;;;;;5013334;28;20319;-84
2022/10/06 07:07:02;;;;;;;8.80;8.60;;;14.00;99.90;;;;;;5020710;28;20247;-84
2022/10/06 07:09:31;;;;;;;8.80;8.60;;;14.10;99.90;;;;;;5021028;28;20232;-84
2022/10/06 07:12:01;;;;;;;8.50;8.30;;;14.10;99.90;;;;;;5022019;28;20730;-84
2022/10/06 07:14:30;;;;;;;8.50;8.30;;;14.20;99.90;;;;;;5023172;28;20240;-84
2022/10/06 07:25:23;;;;;;;8.30;8.10;;;14.40;99.90;;;;;;5021793;28;20291;-85
2022/10/06 07:27:51;;;;;;;8.37;8.17;;;14.40;99.90;;;;;;5023249;28;20227;-86
2022/10/06 07:30:22;;;;;;;8.40;8.20;;;14.60;99.90;;;;;;5021940;28;20227;-86
2022/10/06 07:35:39;;;;;;;9.10;8.80;;;14.80;99.90;;;;;;5021548;28;20258;-84
2022/10/06 07:38:08;;;;;;;9.30;9.00;;;14.80;99.90;;;;;;5020300;28;20224;-84
2022/10/06 07:40:36;;;;;;;9.70;9.40;;;14.90;99.90;;;;;;5009834;28;20276;-83
2022/10/06 07:43:05;;;;;;;9.70;9.40;;;14.80;99.90;;;;;;5007506;28;20231;-83
2022/10/06 07:45:44;;;;;;;9.70;9.40;;;14.70;99.90;;;;;;5036316;28;20243;-86
2022/10/06 07:48:22;;;;;;;9.50;9.20;;;14.70;99.90;;;;;;5023518;28;20242;-82
2022/10/06 07:50:52;;;;;;;9.40;9.10;;;14.60;99.90;;;;;;5017711;28;20232;-82
2022/10/06 07:53:20;;;;;;;9.23;8.93;;;14.50;99.90;;;;;;5022428;28;20307;-81
2022/10/06 07:55:49;;;;;;;9.20;8.90;;;14.40;99.90;;;;;;5021315;28;20299;-81
2022/10/06 07:58:18;;;;;;;9.00;8.77;;;14.40;99.90;;;;;;5022509;28;20247;-81
2022/10/06 08:00:54;;;;;;;9.47;9.17;;;14.40;99.90;;;;;;5025267;28;20280;-81
2022/10/06 08:03:35;;;;;;;9.47;9.17;;;14.40;99.90;;;;;;5023909;28;20267;-82
2022/10/06 08:06:05;;;;;;;9.37;9.07;;;14.40;99.90;;;;;;5024812;28;20242;-82
2022/10/06 08:08:36;;;;;;;9.23;8.93;;;14.50;99.90;;;;;;5025063;28;20228;-84
2022/10/06 08:11:06;;;;;;;9.37;9.07;;;14.50;99.90;;;;;;5024340;28;20228;-87
2022/10/06 08:13:36;;;;;;;9.50;9.20;;;14.40;99.90;;;;;;5027102;28;20244;-83
2022/10/06 08:16:11;;;;;;;9.40;9.10;;;14.30;99.90;;;;;;5025471;28;20244;-83
2022/10/06 08:18:49;;;;;;;9.60;9.30;;;14.20;99.90;;;;;;5026567;28;20244;-82
2022/10/06 08:21:20;;;;;;;9.70;9.40;;;14.20;99.90;;;;;;5027417;28;20216;-83
2022/10/06 08:23:49;;;;;;;9.67;9.37;;;14.20;99.90;;;;;;5025174;28;20263;-82
2022/10/06 08:26:19;;;;;;;9.47;9.17;;;14.10;99.90;;;;;;5025960;28;20240;-82
2022/10/06 08:28:49;;;;;;;9.50;9.20;;;14.10;99.90;;;;;;5026701;28;20267;-82
2022/10/06 08:31:20;;;;;;;9.40;9.10;;;14.00;99.90;;;;;;5026441;28;20232;-83
2022/10/06 08:33:55;;;;;;;9.33;9.03;;;14.00;99.90;;;;;;5026185;28;20255;-82
2022/10/06 08:36:32;;;;;;;9.67;9.37;;;14.10;99.90;;;;;;5023131;28;20232;-84
2022/10/06 08:39:05;;;;;;;9.40;9.10;;;14.20;99.90;;;;;;5024207;28;20246;-80
2022/10/06 08:41:42;;;;;;;9.30;9.00;;;14.20;99.90;;;;;;5023546;28;20238;-82
2022/10/06 08:44:33;;;;;;;9.50;9.20;;;14.40;99.90;;;;;;5026070;28;20234;-82
2022/10/06 08:47:10;;;;;;;9.33;9.03;;;14.50;99.90;;;;;;5028527;28;20320;-81
2022/10/06 08:49:44;;;;;;;9.37;9.07;;;14.60;99.90;;;;;;5025681;28;20285;-81
2022/10/06 08:52:31;;;;;;;9.20;8.90;;;14.70;99.90;;;;;;5023811;28;20211;-81
2022/10/06 08:55:18;;;;;;;9.50;9.20;;;14.70;99.90;;;;;;5026853;28;20259;-84
2022/10/06 08:58:00;;;;;;;9.10;8.87;;;14.70;99.90;;;;;;5025209;28;20240;-81
2022/10/06 09:00:31;;;;;;;8.83;8.63;;;14.80;99.90;;;;;;5023885;28;20300;-83
2022/10/06 09:03:00;;;;;;;9.10;8.80;;;14.90;99.90;;;;;;5023748;28;20262;-79
2022/10/06 09:05:30;;;;;;;9.20;8.90;;;14.90;99.90;;;;;;5022078;28;20319;-79
2022/10/06 09:08:23;;;;;;;8.63;8.43;;;15.00;99.90;;;;;;5024659;28;20303;-80
2022/10/06 09:11:10;;;;;;;8.40;8.20;;;15.10;99.90;;;;;;5022291;28;20280;-80
2022/10/06 09:13:45;;;;;;;8.73;8.53;;;15.20;99.90;;;;;;5023770;28;20235;-80
2022/10/06 09:16:18;;;;;;;8.70;8.50;;;15.20;99.90;;;;;;5023568;28;20275;-80
2022/10/06 09:18:53;;;;;;;9.20;8.90;;;15.30;99.90;;;;;;5023203;28;20236;-80
2022/10/06 09:21:35;;;;;;;9.05;8.85;;;15.70;99.90;;;;;;5022436;28;20246;-80
2022/10/06 09:24:14;;;;;;;9.00;8.80;;;16.30;99.90;;;;;;5022297;28;20266;-81
2022/10/06 09:26:45;;;;;;;9.27;8.98;;;16.60;99.90;;;;;;5022824;28;20303;-81
2022/10/06 09:29:14;;;;;;;9.40;9.10;;;16.50;99.90;;;;;;5024310;28;20235;-81
2022/10/06 09:37:32;;;;;;;9.48;9.18;;;16.10;99.90;;;;;;5021300;28;20288;-81
2022/10/06 09:40:02;;;;;;;9.40;9.10;;;16.10;99.90;;;;;;5022924;28;20259;-82
2022/10/06 09:42:34;;;;;;;9.43;9.13;;;16.20;99.90;;;;;;5025488;28;20235;-82
2022/10/06 09:45:10;;;;;;;9.60;9.30;;;16.50;99.90;;;;;;5028142;28;20232;-82
2022/10/06 09:47:43;;;;;;;9.80;9.50;;;17.00;99.90;;;;;;5023771;28;20309;-81
2022/10/06 09:50:36;;;;;;;9.73;9.43;;;17.50;99.90;;;;;;5022476;28;20228;-82
2022/10/06 09:53:21;;;;;;;9.90;9.60;;;18.00;99.90;;;;;;5020703;28;20338;-82
2022/10/06 09:55:54;;;;;;;9.90;9.60;;;18.40;99.90;;;;;;5015563;28;20293;-81
2022/10/06 09:58:32;;;;;;;9.90;9.60;;;18.40;99.90;;;;;;5002724;28;20240;-81
2022/10/06 10:01:07;;;;;;;9.85;9.55;;;18.00;99.90;;;;;;5002138;28;20236;-82
2022/10/06 10:03:45;;;;;;;9.50;9.20;;;18.30;99.90;;;;;;5000446;28;20327;-81
2022/10/06 10:06:24;;;;;;;9.43;9.13;;;18.30;99.90;;;;;;5000691;28;20791;-83
2022/10/06 10:09:20;;;;;;;9.88;9.57;;;18.20;99.90;;;;;;5001979;28;20235;-82
2022/10/06 10:14:45;;;;;;;10.00;9.70;;;19.00;99.90;;;;;;5014406;28;20232;-83
2022/10/06 10:17:19;;;;;;;9.68;9.38;;;19.10;99.90;;;;;;5020392;28;20236;-83
2022/10/06 10:19:54;;;;;;;9.70;9.40;;;18.90;99.90;;;;;;5021574;28;20231;-84
2022/10/06 10:22:24;;;;;;;9.50;9.20;;;18.80;99.90;;;;;;5020851;28;20330;-82
2022/10/06 10:25:08;;;;;;;9.45;9.15;;;18.40;99.90;;;;;;5028135;28;20235;-80
2022/10/06 10:27:51;;;;;;;9.50;9.20;;;18.10;99.90;;;;;;5028445;28;20247;-81
2022/10/06 10:30:18;;;;;;;9.60;9.30;;;18.00;99.90;;;;;;5019560;28;20312;-81
2022/10/06 10:32:57;;;;;;;9.70;9.40;;;18.10;99.90;;;;;;5020080;28;20240;-81
2022/10/06 10:35:36;;;;;;;9.70;9.40;;;17.90;99.90;;;;;;5020913;28;20231;-80
2022/10/06 10:38:10;;;;;;;10.00;9.70;;;17.90;99.90;;;;;;5022528;28;20340;-82
2022/10/06 10:40:49;;;;;;;9.60;9.30;;;18.40;99.90;;;;;;5023922;28;20243;-80
2022/10/06 10:43:26;;;;;;;9.77;9.48;;;18.90;99.90;;;;;;5020710;28;20224;-81
2022/10/06 10:46:05;;;;;;;10.43;10.13;;;19.40;99.90;;;;;;5020481;28;20250;-81
2022/10/06 10:48:43;;;;;;;10.10;9.80;;;19.80;99.90;;;;;;5015834;28;20228;-80
2022/10/06 10:51:22;;;;;;;10.10;9.80;;;20.10;99.90;;;;;;5021130;28;20340;-81
2022/10/06 10:53:52;;;;;;;10.20;9.90;;;20.20;99.90;;;;;;5021007;28;20239;-80
2022/10/06 10:56:28;;;;;;;10.18;9.88;;;20.50;99.90;;;;;;5020379;28;20263;-81
2022/10/06 10:59:05;;;;;;;10.13;9.82;;;20.80;99.90;;;;;;5020765;28;20234;-81
2022/10/06 11:01:39;;;;;;;10.25;9.95;;;21.20;99.90;;;;;;5020223;28;20242;-81
2022/10/06 11:04:11;;;;;;;10.30;10.00;;;21.20;99.90;;;;;;5019724;28;20239;-83
2022/10/06 11:09:18;;;;;;;10.32;10.02;;;21.20;99.90;;;;;;5070984;22;20234;-78
2022/10/06 11:20:33;;;;;;;9.98;9.68;;;19.40;99.90;;;;;;4852010;29;20298;-85
2022/10/06 11:27:08;;;;;;;10.30;10.00;;;19.30;99.90;;;;;;4932611;28;20241;-86
2022/10/06 11:38:03;;;;;;;;;;;;;;;;;;;;;
2022/10/06 11:53:05;;;;;;;10.20;9.90;;;21.00;99.90;;;;;;4657740;27;15117977;-85
2022/10/06 11:59:33;;;;;;;10.20;9.90;;;22.00;99.90;;;;;;5156394;27;20216;-84
2022/10/06 12:05:52;;;;;;;9.85;9.55;;;22.20;99.90;;;;;;5075560;28;20287;-84
2022/10/06 12:08:56;;;;;;;10.07;9.77;;;21.60;99.90;;;;;;5157531;27;20234;-84
2022/10/06 12:14:47;;;;;;;10.55;10.25;;;22.20;99.90;;;;;;5154076;27;20215;-83
2022/10/06 12:21:00;;;;;;;;;;;;;;;;;;;;;
2022/10/06 12:24:35;;;;;;;10.88;10.57;;;24.10;99.90;;;;;;5161418;27;20227;-83
2022/10/06 12:27:51;;;;;;;10.25;9.95;;;24.70;99.90;;;;;;5169006;27;20223;-84
2022/10/06 12:30:56;;;;;;;10.10;9.80;;;25.00;99.90;;;;;;5187360;27;20237;-83
2022/10/06 12:33:43;;;;;;;10.25;9.95;;;25.10;99.90;;;;;;5176847;27;20219;-82
2022/10/06 12:36:56;;;;;;;10.27;9.98;;;24.90;99.90;;;;;;5165679;27;20227;-81
2022/10/06 12:50:57;;;;;;;10.60;10.30;;;25.70;99.90;;;;;;5053770;28;20231;-80
2022/10/06 12:56:31;;;;;;;10.32;10.02;;;25.20;99.90;;;;;;5159136;27;20331;-81
2022/10/06 13:58:32;;;;;;;10.15;9.85;;;27.30;99.90;;;;;;4996944;28;20221;-84
2022/10/06 14:01:09;;;;;;;10.10;9.80;;;27.00;99.90;;;;;;5006948;28;20330;-85
2022/10/06 14:11:45;;;;;;;10.43;10.13;;;27.00;99.90;;;;;;5065074;28;20286;-83
2022/10/06 14:18:00;;;;;;;10.48;10.18;;;27.10;99.90;;;;;;5070371;28;20237;-84
2022/10/06 14:20:47;;;;;;;10.30;10.00;;;27.10;99.90;;;;;;5069861;28;20326;-84
2022/10/06 14:23:43;;;;;;;10.27;9.98;;;26.70;99.90;;;;;;5104630;27;20222;-84
2022/10/06 14:26:16;;;;;;;10.25;9.95;;;26.70;99.90;;;;;;5162105;27;20227;-84
2022/10/06 14:28:51;;;;;;;10.23;9.93;;;26.40;99.90;;;;;;5153695;27;20323;-83
2022/10/06 14:31:32;;;;;;;10.20;9.90;;;26.10;99.90;;;;;;5151938;27;20223;-83
2022/10/06 14:34:00;;;;;;;10.20;9.90;;;26.50;99.90;;;;;;5150426;27;20266;-84
2022/10/06 14:36:31;;;;;;;10.20;9.90;;;27.10;99.90;;;;;;5148698;27;20220;-82
2022/10/06 14:39:00;;;;;;;10.20;9.90;;;27.10;99.90;;;;;;5149124;27;20238;-82
2022/10/06 14:42:21;;;;;;;10.23;9.93;;;27.30;99.90;;;;;;5148937;27;20235;-82
2022/10/06 14:44:49;;;;;;;10.20;9.90;;;27.30;99.90;;;;;;5144974;27;20224;-80
2022/10/06 14:48:30;;;;;;;10.10;9.80;;;27.10;99.90;;;;;;5142322;27;20297;-84
2022/10/06 15:14:57;;;;;;;10.35;10.05;;;27.70;99.90;;;;;;4922781;28;20235;-84
2022/10/06 15:21:23;;;;;;;10.57;10.27;;;28.20;99.90;;;;;;4897793;29;20255;-79
2022/10/06 15:23:58;;;;;;;10.40;10.10;;;28.50;99.90;;;;;;5003162;28;20284;-83
2022/10/06 15:32:10;;;;;;;10.15;9.85;;;27.90;99.90;;;;;;5124214;28;20224;-84
2022/10/06 15:34:43;;;;;;;9.90;9.60;;;27.10;99.90;;;;;;5124351;28;20263;-84
2022/10/06 15:41:26;;;;;;;10.20;9.90;;;26.90;99.90;;;;;;5098220;27;20232;-84
2022/10/06 15:44:02;;;;;;;10.50;10.20;;;26.30;99.90;;;;;;5159242;27;20227;-84
2022/10/06 15:46:41;;;;;;;10.30;10.00;;;26.30;99.90;;;;;;5165652;27;20223;-84
2022/10/06 15:49:21;;;;;;;10.40;10.10;;;26.30;99.90;;;;;;5166197;27;20245;-84
2022/10/06 15:51:51;;;;;;;10.30;10.00;;;26.00;99.90;;;;;;5166982;27;20223;-85
2022/10/06 15:54:27;;;;;;;10.27;9.98;;;25.60;99.90;;;;;;5166195;27;20223;-83
2022/10/06 15:57:07;;;;;;;10.27;9.98;;;25.10;99.90;;;;;;5164512;27;20317;-84
2022/10/06 15:59:35;;;;;;;10.30;10.00;;;24.10;99.90;;;;;;5155657;27;20231;-85
2022/10/06 16:02:06;;;;;;;10.30;10.00;;;23.80;99.90;;;;;;5148088;27;20227;-83
2022/10/06 16:05:02;;;;;;;10.32;10.02;;;23.60;99.90;;;;;;5159104;27;20401;-84
2022/10/06 16:07:31;;;;;;;10.35;10.05;;;23.40;99.90;;;;;;5163253;27;20267;-85
2022/10/06 16:10:08;;;;;;;9.50;9.20;;;22.90;99.90;;;;;;5159248;27;20224;-84
2022/10/06 16:12:50;;;;;;;9.90;9.60;;;22.60;99.90;;;;;;5171858;27;20223;-85
2022/10/06 16:15:18;;;;;;;9.90;9.60;;;22.30;99.90;;;;;;5171679;27;20261;-85
2022/10/06 16:17:46;;;;;;;9.98;9.68;;;21.90;99.90;;;;;;5171466;27;20318;-85
2022/10/06 16:20:19;;;;;;;10.05;9.75;;;21.60;99.90;;;;;;5167516;27;20207;-85
2022/10/06 16:22:53;;;;;;;9.82;9.52;;;21.30;99.90;;;;;;5165571;27;20247;-85
2022/10/06 16:25:21;;;;;;;10.18;9.88;;;21.20;99.90;;;;;;5168292;27;20241;-85
2022/10/06 16:28:01;;;;;;;10.35;10.05;;;20.80;99.90;;;;;;5165888;27;20238;-85
2022/10/06 16:30:30;;;;;;;10.27;9.98;;;20.60;99.90;;;;;;5166089;27;20219;-84
2022/10/06 16:33:01;;;;;;;10.25;9.95;;;20.50;99.90;;;;;;5166052;27;20235;-85
2022/10/06 16:35:37;;;;;;;10.18;9.88;;;20.30;99.90;;;;;;5165822;27;20223;-84
2022/10/06 16:38:06;;;;;;;10.15;9.85;;;20.10;99.90;;;;;;5169205;27;20227;-84
2022/10/06 16:40:40;;;;;;;9.85;9.55;;;19.90;99.90;;;;;;5169587;27;20220;-85
2022/10/06 16:43:13;;;;;;;10.13;9.82;;;19.80;99.90;;;;;;5169670;27;20255;-85